sensor_id;sensor_type;location;lat;lon;timestamp;pressure;altitude;pressure_sealevel;temperature
48854;BMP280;34673;52.808;17.856;2024-01-25T00:02:19;99534.34;;;5.81
48854;BMP280;34673;52.808;17.856;2024-01-25T00:04:46;99546.34;;;5.78
48854;BMP280;34673;52.808;17.856;2024-01-25T00:07:13;99528.41;;;5.74
48854;BMP280;34673;52.808;17.856;2024-01-25T00:09:41;99532.69;;;5.70
48854;BMP280;34673;52.808;17.856;2024-01-25T00:12:08;99539.53;;;5.68
48854;BMP280;34673;52.808;17.856;2024-01-25T00:14:35;99548.06;;;5.73
48854;BMP280;34673;52.808;17.856;2024-01-25T00:17:03;99542.94;;;5.73
48854;BMP280;34673;52.808;17.856;2024-01-25T00:19:30;99548.94;;;5.74
48854;BMP280;34673;52.808;17.856;2024-01-25T00:21:57;99560.03;;;5.77
48854;BMP280;34673;52.808;17.856;2024-01-25T00:24:25;99536.94;;;5.77
48854;BMP280;34673;52.808;17.856;2024-01-25T00:26:53;99556.63;;;5.78
48854;BMP280;34673;52.808;17.856;2024-01-25T00:29:20;99532.66;;;5.76
48854;BMP280;34673;52.808;17.856;2024-01-25T00:31:47;99549.78;;;5.74
48854;BMP280;34673;52.808;17.856;2024-01-25T00:34:15;99559.19;;;5.75
48854;BMP280;34673;52.808;17.856;2024-01-25T00:36:42;99558.31;;;5.76
48854;BMP280;34673;52.808;17.856;2024-01-25T00:39:10;99560.91;;;5.76
48854;BMP280;34673;52.808;17.856;2024-01-25T00:41:38;99570.31;;;5.74
48854;BMP280;34673;52.808;17.856;2024-01-25T00:44:05;99566.91;;;5.75
48854;BMP280;34673;52.808;17.856;2024-01-25T00:46:33;99568.59;;;5.76
48854;BMP280;34673;52.808;17.856;2024-01-25T00:49:00;99563.47;;;5.76
48854;BMP280;34673;52.808;17.856;2024-01-25T00:51:28;99565.16;;;5.77
48854;BMP280;34673;52.808;17.856;2024-01-25T00:53:56;99558.31;;;5.76
48854;BMP280;34673;52.808;17.856;2024-01-25T00:56:24;99557.47;;;5.74
48854;BMP280;34673;52.808;17.856;2024-01-25T00:58:52;99571.16;;;5.75
48854;BMP280;34673;52.808;17.856;2024-01-25T01:01:21;99563.44;;;5.78
48854;BMP280;34673;52.808;17.856;2024-01-25T01:03:49;99575.44;;;5.74
48854;BMP280;34673;52.808;17.856;2024-01-25T01:06:20;99556.63;;;5.75
48854;BMP280;34673;52.808;17.856;2024-01-25T01:08:48;99563.47;;;5.76
48854;BMP280;34673;52.808;17.856;2024-01-25T01:11:15;99562.63;;;5.73
48854;BMP280;34673;52.808;17.856;2024-01-25T01:13:42;99552.34;;;5.73
48854;BMP280;34673;52.808;17.856;2024-01-25T01:16:10;99549.78;;;5.71
48854;BMP280;34673;52.808;17.856;2024-01-25T01:18:37;99551.47;;;5.69
48854;BMP280;34673;52.808;17.856;2024-01-25T01:21:05;99541.25;;;5.63
48854;BMP280;34673;52.808;17.856;2024-01-25T01:23:32;99546.38;;;5.66
48854;BMP280;34673;52.808;17.856;2024-01-25T01:26:00;99541.25;;;5.63
48854;BMP280;34673;52.808;17.856;2024-01-25T01:28:27;99542.94;;;5.61
48854;BMP280;34673;52.808;17.856;2024-01-25T01:30:54;99546.38;;;5.60
48854;BMP280;34673;52.808;17.856;2024-01-25T01:33:22;99535.25;;;5.60
48854;BMP280;34673;52.808;17.856;2024-01-25T01:35:49;99537.81;;;5.58
48854;BMP280;34673;52.808;17.856;2024-01-25T01:38:17;99542.94;;;5.61
48854;BMP280;34673;52.808;17.856;2024-01-25T01:40:44;99546.38;;;5.57
48854;BMP280;34673;52.808;17.856;2024-01-25T01:43:21;99551.50;;;5.63
48854;BMP280;34673;52.808;17.856;2024-01-25T01:45:50;99546.38;;;5.66
48854;BMP280;34673;52.808;17.856;2024-01-25T01:48:17;99527.56;;;5.61
48854;BMP280;34673;52.808;17.856;2024-01-25T01:50:45;99539.53;;;5.65
48854;BMP280;34673;52.808;17.856;2024-01-25T01:53:13;99532.69;;;5.61
48854;BMP280;34673;52.808;17.856;2024-01-25T01:55:40;99560.06;;;5.68
48854;BMP280;34673;52.808;17.856;2024-01-25T01:58:09;99552.34;;;5.71
48854;BMP280;34673;52.808;17.856;2024-01-25T02:00:37;99560.91;;;5.72
48854;BMP280;34673;52.808;17.856;2024-01-25T02:03:06;99552.34;;;5.70
48854;BMP280;34673;52.808;17.856;2024-01-25T02:05:34;99566.88;;;5.69
48854;BMP280;34673;52.808;17.856;2024-01-25T02:08:02;99563.47;;;5.69
48854;BMP280;34673;52.808;17.856;2024-01-25T02:10:30;99565.19;;;5.68
48854;BMP280;34673;52.808;17.856;2024-01-25T02:12:57;99554.06;;;5.69
48854;BMP280;34673;52.808;17.856;2024-01-25T02:15:24;99563.50;;;5.67
48854;BMP280;34673;52.808;17.856;2024-01-25T02:17:51;99566.88;;;5.66
48854;BMP280;34673;52.808;17.856;2024-01-25T02:20:19;99563.50;;;5.67
48854;BMP280;34673;52.808;17.856;2024-01-25T02:22:47;99565.19;;;5.65
48854;BMP280;34673;52.808;17.856;2024-01-25T02:25:15;99551.50;;;5.63
48854;BMP280;34673;52.808;17.856;2024-01-25T02:27:43;99554.09;;;5.65
48854;BMP280;34673;52.808;17.856;2024-01-25T02:30:10;99560.06;;;5.65
48854;BMP280;34673;52.808;17.856;2024-01-25T02:32:38;99549.81;;;5.62
48854;BMP280;34673;52.808;17.856;2024-01-25T02:35:05;99534.41;;;5.59
48854;BMP280;34673;52.808;17.856;2024-01-25T02:37:33;99553.22;;;5.61
48854;BMP280;34673;52.808;17.856;2024-01-25T02:40:00;99554.94;;;5.59
48854;BMP280;34673;52.808;17.856;2024-01-25T02:42:28;99557.50;;;5.59
48854;BMP280;34673;52.808;17.856;2024-01-25T02:44:55;99554.06;;;5.62
48854;BMP280;34673;52.808;17.856;2024-01-25T02:47:23;99548.97;;;5.54
48854;BMP280;34673;52.808;17.856;2024-01-25T02:49:50;99559.22;;;5.57
48854;BMP280;34673;52.808;17.856;2024-01-25T02:52:17;99560.06;;;5.53
48854;BMP280;34673;52.808;17.856;2024-01-25T02:54:45;99559.22;;;5.54
48854;BMP280;34673;52.808;17.856;2024-01-25T02:57:12;99560.06;;;5.53
48854;BMP280;34673;52.808;17.856;2024-01-25T02:59:40;99570.31;;;5.56
48854;BMP280;34673;52.808;17.856;2024-01-25T03:02:07;99565.19;;;5.50
48854;BMP280;34673;52.808;17.856;2024-01-25T03:04:35;99565.19;;;5.53
48854;BMP280;34673;52.808;17.856;2024-01-25T03:07:02;99575.44;;;5.53
48854;BMP280;34673;52.808;17.856;2024-01-25T03:09:29;99582.31;;;5.54
48854;BMP280;34673;52.808;17.856;2024-01-25T03:11:57;99570.34;;;5.59
48854;BMP280;34673;52.808;17.856;2024-01-25T03:14:24;99578.88;;;5.61
48854;BMP280;34673;52.808;17.856;2024-01-25T03:16:51;99578.88;;;5.61
48854;BMP280;34673;52.808;17.856;2024-01-25T03:19:19;99572.03;;;5.60
48854;BMP280;34673;52.808;17.856;2024-01-25T03:21:46;99593.41;;;5.62
48854;BMP280;34673;52.808;17.856;2024-01-25T03:24:13;99584.00;;;5.61
48854;BMP280;34673;52.808;17.856;2024-01-25T03:26:41;99582.28;;;5.63
48854;BMP280;34673;52.808;17.856;2024-01-25T03:29:08;99589.13;;;5.64
48854;BMP280;34673;52.808;17.856;2024-01-25T03:31:35;99586.56;;;5.63
48854;BMP280;34673;52.808;17.856;2024-01-25T03:34:03;99592.56;;;5.63
48854;BMP280;34673;52.808;17.856;2024-01-25T03:36:32;99581.44;;;5.61
48854;BMP280;34673;52.808;17.856;2024-01-25T03:39:00;99578.03;;;5.62
48854;BMP280;34673;52.808;17.856;2024-01-25T03:41:27;99584.00;;;5.61
48854;BMP280;34673;52.808;17.856;2024-01-25T03:43:56;99576.31;;;5.57
48854;BMP280;34673;52.808;17.856;2024-01-25T03:46:23;99581.44;;;5.55
48854;BMP280;34673;52.808;17.856;2024-01-25T03:48:50;99577.16;;;5.57
48854;BMP280;34673;52.808;17.856;2024-01-25T03:51:18;99576.31;;;5.58
48854;BMP280;34673;52.808;17.856;2024-01-25T03:53:47;99580.56;;;5.56
48854;BMP280;34673;52.808;17.856;2024-01-25T03:56:15;99584.00;;;5.55
48854;BMP280;34673;52.808;17.856;2024-01-25T03:58:44;99571.16;;;5.50
48854;BMP280;34673;52.808;17.856;2024-01-25T04:01:12;99575.44;;;5.56
48854;BMP280;34673;52.808;17.856;2024-01-25T04:03:40;99566.88;;;5.51
48854;BMP280;34673;52.808;17.856;2024-01-25T04:06:08;99588.25;;;5.56
48854;BMP280;34673;52.808;17.856;2024-01-25T04:08:36;99560.94;;;5.49
48854;BMP280;34673;52.808;17.856;2024-01-25T04:11:03;99578.88;;;5.49
48854;BMP280;34673;52.808;17.856;2024-01-25T04:13:30;99588.28;;;5.50
48854;BMP280;34673;52.808;17.856;2024-01-25T04:15:58;99589.13;;;5.50
48854;BMP280;34673;52.808;17.856;2024-01-25T04:18:26;99589.13;;;5.49
48854;BMP280;34673;52.808;17.856;2024-01-25T04:20:53;99592.53;;;5.45
48854;BMP280;34673;52.808;17.856;2024-01-25T04:23:20;99594.25;;;5.43
48854;BMP280;34673;52.808;17.856;2024-01-25T04:25:48;99599.38;;;5.40
48854;BMP280;34673;52.808;17.856;2024-01-25T04:28:15;99595.97;;;5.41
48854;BMP280;34673;52.808;17.856;2024-01-25T04:30:43;99580.59;;;5.38
48854;BMP280;34673;52.808;17.856;2024-01-25T04:33:10;99599.38;;;5.33
48854;BMP280;34673;52.808;17.856;2024-01-25T04:35:38;99597.66;;;5.26
48854;BMP280;34673;52.808;17.856;2024-01-25T04:38:05;99589.97;;;5.26
48854;BMP280;34673;52.808;17.856;2024-01-25T04:40:32;99613.06;;;5.32
48854;BMP280;34673;52.808;17.856;2024-01-25T04:43:00;99607.06;;;5.29
48854;BMP280;34673;52.808;17.856;2024-01-25T04:45:27;99613.03;;;5.23
48854;BMP280;34673;52.808;17.856;2024-01-25T04:47:54;99608.78;;;5.22
48854;BMP280;34673;52.808;17.856;2024-01-25T04:50:22;99629.31;;;5.27
48854;BMP280;34673;52.808;17.856;2024-01-25T04:52:49;99616.47;;;5.22
48854;BMP280;34673;52.808;17.856;2024-01-25T04:55:17;99619.84;;;5.18
48854;BMP280;34673;52.808;17.856;2024-01-25T04:57:44;99626.72;;;5.16
48854;BMP280;34673;52.808;17.856;2024-01-25T05:00:12;99631.81;;;5.15
48854;BMP280;34673;52.808;17.856;2024-01-25T05:02:39;99640.34;;;5.09
48854;BMP280;34673;52.808;17.856;2024-01-25T05:05:07;99655.75;;;5.09
48854;BMP280;34673;52.808;17.856;2024-01-25T05:07:34;99652.31;;;5.07
48854;BMP280;34673;52.808;17.856;2024-01-25T05:10:01;99663.44;;;5.06
48854;BMP280;34673;52.808;17.856;2024-01-25T05:12:29;99667.69;;;5.07
48854;BMP280;34673;52.808;17.856;2024-01-25T05:14:58;99669.38;;;5.02
48854;BMP280;34673;52.808;17.856;2024-01-25T05:17:25;99667.69;;;5.04
48854;BMP280;34673;52.808;17.856;2024-01-25T05:19:52;99660.00;;;5.04
48854;BMP280;34673;52.808;17.856;2024-01-25T05:22:20;99657.44;;;5.04
48854;BMP280;34673;52.808;17.856;2024-01-25T05:24:49;99664.28;;;5.05
48854;BMP280;34673;52.808;17.856;2024-01-25T05:27:16;99653.16;;;5.06
48854;BMP280;34673;52.808;17.856;2024-01-25T05:29:43;99645.47;;;5.06
48854;BMP280;34673;52.808;17.856;2024-01-25T05:32:10;99646.34;;;5.05
48854;BMP280;34673;52.808;17.856;2024-01-25T05:34:38;99648.91;;;5.08
48854;BMP280;34673;52.808;17.856;2024-01-25T05:37:06;99664.28;;;5.08
48854;BMP280;34673;52.808;17.856;2024-01-25T05:39:33;99660.03;;;5.08
48854;BMP280;34673;52.808;17.856;2024-01-25T05:42:01;99668.56;;;5.09
48854;BMP280;34673;52.808;17.856;2024-01-25T05:44:28;99662.56;;;5.10
48854;BMP280;34673;52.808;17.856;2024-01-25T05:46:55;99663.44;;;5.06
48854;BMP280;34673;52.808;17.856;2024-01-25T05:49:22;99664.28;;;5.05
48854;BMP280;34673;52.808;17.856;2024-01-25T05:51:50;99667.66;;;4.99
48854;BMP280;34673;52.808;17.856;2024-01-25T05:54:17;99667.69;;;4.98
48854;BMP280;34673;52.808;17.856;2024-01-25T05:56:44;99679.66;;;5.05
48854;BMP280;34673;52.808;17.856;2024-01-25T05:59:11;99676.25;;;5.06
48854;BMP280;34673;52.808;17.856;2024-01-25T06:01:39;99677.94;;;5.04
48854;BMP280;34673;52.808;17.856;2024-01-25T06:04:06;99683.06;;;5.04
48854;BMP280;34673;52.808;17.856;2024-01-25T06:06:34;99690.75;;;5.04
48854;BMP280;34673;52.808;17.856;2024-01-25T06:09:01;99690.72;;;4.99
48854;BMP280;34673;52.808;17.856;2024-01-25T06:11:39;99687.34;;;5.03
48854;BMP280;34673;52.808;17.856;2024-01-25T06:14:06;99707.00;;;5.06
48854;BMP280;34673;52.808;17.856;2024-01-25T06:16:33;99706.13;;;5.07
48854;BMP280;34673;52.808;17.856;2024-01-25T06:19:02;99713.84;;;5.10
48854;BMP280;34673;52.808;17.856;2024-01-25T06:21:30;99721.53;;;5.11
48854;BMP280;34673;52.808;17.856;2024-01-25T06:23:57;99727.53;;;5.15
48854;BMP280;34673;52.808;17.856;2024-01-25T06:26:25;99721.56;;;5.16
48854;BMP280;34673;52.808;17.856;2024-01-25T06:28:52;99736.94;;;5.15
48854;BMP280;34673;52.808;17.856;2024-01-25T06:31:19;99730.09;;;5.15
48854;BMP280;34673;52.808;17.856;2024-01-25T06:33:46;99729.28;;;5.16
48854;BMP280;34673;52.808;17.856;2024-01-25T06:36:21;99740.38;;;5.17
48854;BMP280;34673;52.808;17.856;2024-01-25T06:38:48;99747.22;;;5.19
48854;BMP280;34673;52.808;17.856;2024-01-25T06:41:16;99746.34;;;5.20
48854;BMP280;34673;52.808;17.856;2024-01-25T06:43:44;99742.94;;;5.18
48854;BMP280;34673;52.808;17.856;2024-01-25T06:46:11;99735.25;;;5.17
48854;BMP280;34673;52.808;17.856;2024-01-25T06:48:38;99745.50;;;5.20
48854;BMP280;34673;52.808;17.856;2024-01-25T06:51:06;99746.34;;;5.20
48854;BMP280;34673;52.808;17.856;2024-01-25T06:53:33;99754.06;;;5.22
48854;BMP280;34673;52.808;17.856;2024-01-25T06:56:00;99736.09;;;5.17
48854;BMP280;34673;52.808;17.856;2024-01-25T06:58:27;99753.22;;;5.21
48854;BMP280;34673;52.808;17.856;2024-01-25T07:00:56;99748.06;;;5.18
48854;BMP280;34673;52.808;17.856;2024-01-25T07:03:23;99747.22;;;5.21
48854;BMP280;34673;52.808;17.856;2024-01-25T07:05:51;99754.06;;;5.20
48854;BMP280;34673;52.808;17.856;2024-01-25T07:08:18;99753.22;;;5.21
48854;BMP280;34673;52.808;17.856;2024-01-25T07:10:46;99758.28;;;5.12
48854;BMP280;34673;52.808;17.856;2024-01-25T07:13:14;99769.44;;;5.17
48854;BMP280;34673;52.808;17.856;2024-01-25T07:15:41;99776.25;;;5.15
48854;BMP280;34673;52.808;17.856;2024-01-25T07:18:08;99777.97;;;5.16
48854;BMP280;34673;52.808;17.856;2024-01-25T07:20:36;99771.13;;;5.18
48854;BMP280;34673;52.808;17.856;2024-01-25T07:23:04;99768.56;;;5.18
48854;BMP280;34673;52.808;17.856;2024-01-25T07:25:31;99767.72;;;5.16
48854;BMP280;34673;52.808;17.856;2024-01-25T07:27:58;99770.28;;;5.13
48854;BMP280;34673;52.808;17.856;2024-01-25T07:30:26;99777.13;;;5.17
48854;BMP280;34673;52.808;17.856;2024-01-25T07:32:53;99793.38;;;5.22
48854;BMP280;34673;52.808;17.856;2024-01-25T07:35:21;99794.25;;;5.24
48854;BMP280;34673;52.808;17.856;2024-01-25T07:37:50;99809.63;;;5.21
48854;BMP280;34673;52.808;17.856;2024-01-25T07:40:17;99813.03;;;5.23
48854;BMP280;34673;52.808;17.856;2024-01-25T07:42:46;99803.63;;;5.16
48854;BMP280;34673;52.808;17.856;2024-01-25T07:45:14;99801.97;;;5.27
48854;BMP280;34673;52.808;17.856;2024-01-25T07:47:42;99814.78;;;5.27
48854;BMP280;34673;52.808;17.856;2024-01-25T07:50:10;99819.91;;;5.24
48854;BMP280;34673;52.808;17.856;2024-01-25T07:52:37;99826.72;;;5.25
48854;BMP280;34673;52.808;17.856;2024-01-25T07:55:05;99826.72;;;5.22
48854;BMP280;34673;52.808;17.856;2024-01-25T07:57:32;99839.56;;;5.27
48854;BMP280;34673;52.808;17.856;2024-01-25T08:00:00;99847.25;;;5.25
48854;BMP280;34673;52.808;17.856;2024-01-25T08:02:30;99849.81;;;5.24
48854;BMP280;34673;52.808;17.856;2024-01-25T08:04:57;99861.78;;;5.25
48854;BMP280;34673;52.808;17.856;2024-01-25T08:07:25;99874.63;;;5.29
48854;BMP280;34673;52.808;17.856;2024-01-25T08:09:52;99854.06;;;5.26
48854;BMP280;34673;52.808;17.856;2024-01-25T08:12:20;99880.63;;;5.30
48854;BMP280;34673;52.808;17.856;2024-01-25T08:14:47;99867.78;;;5.31
48854;BMP280;34673;52.808;17.856;2024-01-25T08:17:14;99882.31;;;5.29
48854;BMP280;34673;52.808;17.856;2024-01-25T08:19:42;99886.59;;;5.30
48854;BMP280;34673;52.808;17.856;2024-01-25T08:22:09;99898.56;;;5.31
48854;BMP280;34673;52.808;17.856;2024-01-25T08:24:38;99896.84;;;5.30
48854;BMP280;34673;52.808;17.856;2024-01-25T08:27:06;99889.16;;;5.27
48854;BMP280;34673;52.808;17.856;2024-01-25T08:29:34;99899.41;;;5.27
48854;BMP280;34673;52.808;17.856;2024-01-25T08:32:02;99907.09;;;5.27
48854;BMP280;34673;52.808;17.856;2024-01-25T08:34:30;99910.50;;;5.26
48854;BMP280;34673;52.808;17.856;2024-01-25T08:36:57;99907.94;;;5.25
48854;BMP280;34673;52.808;17.856;2024-01-25T08:39:24;99907.09;;;5.24
48854;BMP280;34673;52.808;17.856;2024-01-25T08:41:52;99923.31;;;5.22
48854;BMP280;34673;52.808;17.856;2024-01-25T08:44:20;99927.59;;;5.21
48854;BMP280;34673;52.808;17.856;2024-01-25T08:46:47;99920.69;;;5.17
48854;BMP280;34673;52.808;17.856;2024-01-25T08:49:15;99940.38;;;5.20
48854;BMP280;34673;52.808;17.856;2024-01-25T08:51:42;99948.91;;;5.20
48854;BMP280;34673;52.808;17.856;2024-01-25T08:54:09;99949.78;;;5.19
48854;BMP280;34673;52.808;17.856;2024-01-25T08:56:37;99952.31;;;5.18
48854;BMP280;34673;52.808;17.856;2024-01-25T08:59:04;99948.06;;;5.20
48854;BMP280;34673;52.808;17.856;2024-01-25T09:01:31;99960.88;;;5.20
48854;BMP280;34673;52.808;17.856;2024-01-25T09:03:59;99958.28;;;5.18
48854;BMP280;34673;52.808;17.856;2024-01-25T09:06:30;99970.28;;;5.19
48854;BMP280;34673;52.808;17.856;2024-01-25T09:08:58;99982.25;;;5.20
48854;BMP280;34673;52.808;17.856;2024-01-25T09:11:25;99987.38;;;5.20
48854;BMP280;34673;52.808;17.856;2024-01-25T09:13:52;99977.97;;;5.18
48854;BMP280;34673;52.808;17.856;2024-01-25T09:16:20;99983.09;;;5.21
48854;BMP280;34673;52.808;17.856;2024-01-25T09:18:47;99992.53;;;5.23
48854;BMP280;34673;52.808;17.856;2024-01-25T09:21:15;100002.78;;;5.23
48854;BMP280;34673;52.808;17.856;2024-01-25T09:23:42;100007.91;;;5.23
48854;BMP280;34673;52.808;17.856;2024-01-25T09:26:09;100004.53;;;5.24
48854;BMP280;34673;52.808;17.856;2024-01-25T09:28:37;100016.47;;;5.22
48854;BMP280;34673;52.808;17.856;2024-01-25T09:31:04;100026.72;;;5.22
48854;BMP280;34673;52.808;17.856;2024-01-25T09:33:33;100025.03;;;5.21
48854;BMP280;34673;52.808;17.856;2024-01-25T09:36:01;100028.41;;;5.20
48854;BMP280;34673;52.808;17.856;2024-01-25T09:38:29;100036.97;;;5.22
48854;BMP280;34673;52.808;17.856;2024-01-25T09:40:56;100037.84;;;5.21
48854;BMP280;34673;52.808;17.856;2024-01-25T09:43:24;100033.56;;;5.23
48854;BMP280;34673;52.808;17.856;2024-01-25T09:45:55;100049.81;;;5.24
48854;BMP280;34673;52.808;17.856;2024-01-25T09:48:23;100047.25;;;5.25
48854;BMP280;34673;52.808;17.856;2024-01-25T09:50:51;100042.13;;;5.25
48854;BMP280;34673;52.808;17.856;2024-01-25T09:53:21;100042.13;;;5.25
48854;BMP280;34673;52.808;17.856;2024-01-25T09:56:06;100044.69;;;5.24
48854;BMP280;34673;52.808;17.856;2024-01-25T09:58:42;100047.28;;;5.28
48854;BMP280;34673;52.808;17.856;2024-01-25T10:01:15;100047.28;;;5.28
48854;BMP280;34673;52.808;17.856;2024-01-25T10:03:44;100054.09;;;5.26
48854;BMP280;34673;52.808;17.856;2024-01-25T10:06:12;100056.69;;;5.28
48854;BMP280;34673;52.808;17.856;2024-01-25T10:08:41;100055.84;;;5.27
48854;BMP280;34673;52.808;17.856;2024-01-25T10:11:08;100060.09;;;5.27
48854;BMP280;34673;52.808;17.856;2024-01-25T10:16:14;100062.66;;;5.28
48854;BMP280;34673;52.808;17.856;2024-01-25T10:18:43;100062.66;;;5.28
48854;BMP280;34673;52.808;17.856;2024-01-25T10:21:12;100074.63;;;5.28
48854;BMP280;34673;52.808;17.856;2024-01-25T10:23:43;100076.34;;;5.29
48854;BMP280;34673;52.808;17.856;2024-01-25T10:26:10;100069.53;;;5.29
48854;BMP280;34673;52.808;17.856;2024-01-25T10:28:38;100076.38;;;5.30
48854;BMP280;34673;52.808;17.856;2024-01-25T10:31:06;100084.09;;;5.32
48854;BMP280;34673;52.808;17.856;2024-01-25T10:33:34;100081.53;;;5.33
48854;BMP280;34673;52.808;17.856;2024-01-25T10:36:08;100090.94;;;5.33
48854;BMP280;34673;52.808;17.856;2024-01-25T10:38:36;100074.66;;;5.29
48854;BMP280;34673;52.808;17.856;2024-01-25T10:41:06;100083.22;;;5.34
48854;BMP280;34673;52.808;17.856;2024-01-25T10:43:34;100095.19;;;5.32
48854;BMP280;34673;52.808;17.856;2024-01-25T10:46:02;100102.91;;;5.36
48854;BMP280;34673;52.808;17.856;2024-01-25T10:48:31;100094.38;;;5.37
48854;BMP280;34673;52.808;17.856;2024-01-25T10:50:59;100101.25;;;5.38
48854;BMP280;34673;52.808;17.856;2024-01-25T10:53:34;100098.69;;;5.38
48854;BMP280;34673;52.808;17.856;2024-01-25T10:56:02;100104.66;;;5.40
48854;BMP280;34673;52.808;17.856;2024-01-25T10:58:31;100107.22;;;5.40
48854;BMP280;34673;52.808;17.856;2024-01-25T11:01:08;100114.06;;;5.38
48854;BMP280;34673;52.808;17.856;2024-01-25T11:03:45;100111.50;;;5.42
48854;BMP280;34673;52.808;17.856;2024-01-25T11:06:17;100112.34;;;5.40
48854;BMP280;34673;52.808;17.856;2024-01-25T11:08:47;100120.91;;;5.39
48854;BMP280;34673;52.808;17.856;2024-01-25T11:11:15;100122.63;;;5.43
48854;BMP280;34673;52.808;17.856;2024-01-25T11:13:43;100141.47;;;5.45
48854;BMP280;34673;52.808;17.856;2024-01-25T11:16:14;100132.94;;;5.46
48854;BMP280;34673;52.808;17.856;2024-01-25T11:18:52;100142.31;;;5.45
48854;BMP280;34673;52.808;17.856;2024-01-25T11:21:39;100134.66;;;5.47
48854;BMP280;34673;52.808;17.856;2024-01-25T11:24:15;100146.59;;;5.45
48854;BMP280;34673;52.808;17.856;2024-01-25T11:26:43;100136.31;;;5.40
48854;BMP280;34673;52.808;17.856;2024-01-25T11:29:15;100154.31;;;5.43
48854;BMP280;34673;52.808;17.856;2024-01-25T11:31:47;100158.53;;;5.43
48854;BMP280;34673;52.808;17.856;2024-01-25T11:34:15;100158.53;;;5.41
48854;BMP280;34673;52.808;17.856;2024-01-25T11:36:44;100154.28;;;5.42
48854;BMP280;34673;52.808;17.856;2024-01-25T11:39:13;100152.56;;;5.42
48854;BMP280;34673;52.808;17.856;2024-01-25T11:41:41;100164.56;;;5.45
48854;BMP280;34673;52.808;17.856;2024-01-25T11:44:10;100160.31;;;5.47
48854;BMP280;34673;52.808;17.856;2024-01-25T11:46:37;100173.13;;;5.47
48854;BMP280;34673;52.808;17.856;2024-01-25T11:49:05;100162.00;;;5.45
48854;BMP280;34673;52.808;17.856;2024-01-25T11:51:34;100167.13;;;5.45
48854;BMP280;34673;52.808;17.856;2024-01-25T11:54:01;100174.84;;;5.46
48854;BMP280;34673;52.808;17.856;2024-01-25T11:56:34;100189.44;;;5.52
48854;BMP280;34673;52.808;17.856;2024-01-25T11:59:02;100179.16;;;5.52
48854;BMP280;34673;52.808;17.856;2024-01-25T12:01:30;100192.88;;;5.54
48854;BMP280;34673;52.808;17.856;2024-01-25T12:03:58;100206.53;;;5.53
48854;BMP280;34673;52.808;17.856;2024-01-25T12:06:26;100199.69;;;5.49
48854;BMP280;34673;52.808;17.856;2024-01-25T12:08:53;100199.72;;;5.55
48854;BMP280;34673;52.808;17.856;2024-01-25T12:11:20;100210.00;;;5.55
48854;BMP280;34673;52.808;17.856;2024-01-25T12:13:49;100218.53;;;5.54
48854;BMP280;34673;52.808;17.856;2024-01-25T12:16:18;100202.28;;;5.55
48854;BMP280;34673;52.808;17.856;2024-01-25T12:18:45;100222.81;;;5.55
48854;BMP280;34673;52.808;17.856;2024-01-25T12:21:13;100235.63;;;5.52
48854;BMP280;34673;52.808;17.856;2024-01-25T12:23:40;100232.16;;;5.50
48854;BMP280;34673;52.808;17.856;2024-01-25T12:26:09;100236.41;;;5.48
48854;BMP280;34673;52.808;17.856;2024-01-25T12:28:40;100238.97;;;5.48
48854;BMP280;34673;52.808;17.856;2024-01-25T12:31:08;100248.41;;;5.49
48854;BMP280;34673;52.808;17.856;2024-01-25T12:33:36;100256.94;;;5.48
48854;BMP280;34673;52.808;17.856;2024-01-25T12:36:04;100256.03;;;5.43
48854;BMP280;34673;52.808;17.856;2024-01-25T12:38:32;100261.16;;;5.43
48854;BMP280;34673;52.808;17.856;2024-01-25T12:41:02;100259.41;;;5.39
48854;BMP280;34673;52.808;17.856;2024-01-25T12:43:30;100268.00;;;5.41
48854;BMP280;34673;52.808;17.856;2024-01-25T12:45:59;100281.66;;;5.38
48854;BMP280;34673;52.808;17.856;2024-01-25T12:48:42;100271.28;;;5.30
48854;BMP280;34673;52.808;17.856;2024-01-25T12:51:12;100285.00;;;5.32
48854;BMP280;34673;52.808;17.856;2024-01-25T12:53:39;100279.88;;;5.32
48854;BMP280;34673;52.808;17.856;2024-01-25T12:56:07;100288.38;;;5.31
48854;BMP280;34673;52.808;17.856;2024-01-25T12:58:34;100278.97;;;5.30
48854;BMP280;34673;52.808;17.856;2024-01-25T13:01:02;100281.53;;;5.30
48854;BMP280;34673;52.808;17.856;2024-01-25T13:03:30;100284.91;;;5.26
48854;BMP280;34673;52.808;17.856;2024-01-25T13:05:57;100274.72;;;5.29
48854;BMP280;34673;52.808;17.856;2024-01-25T13:08:26;100293.47;;;5.28
48854;BMP280;34673;52.808;17.856;2024-01-25T13:10:53;100302.03;;;5.27
48854;BMP280;34673;52.808;17.856;2024-01-25T13:13:20;100304.56;;;5.26
48854;BMP280;34673;52.808;17.856;2024-01-25T13:15:47;100306.28;;;5.24
48854;BMP280;34673;52.808;17.856;2024-01-25T13:18:15;100303.66;;;5.22
48854;BMP280;34673;52.808;17.856;2024-01-25T13:20:42;100308.81;;;5.22
48854;BMP280;34673;52.808;17.856;2024-01-25T13:23:10;100313.03;;;5.20
48854;BMP280;34673;52.808;17.856;2024-01-25T13:25:37;100307.03;;;5.18
48854;BMP280;34673;52.808;17.856;2024-01-25T13:28:04;100315.56;;;5.17
48854;BMP280;34673;52.808;17.856;2024-01-25T13:30:32;100330.09;;;5.17
48854;BMP280;34673;52.808;17.856;2024-01-25T13:32:59;100330.91;;;5.14
48854;BMP280;34673;52.808;17.856;2024-01-25T13:35:26;100337.75;;;5.15
48854;BMP280;34673;52.808;17.856;2024-01-25T13:37:53;100331.72;;;5.11
48854;BMP280;34673;52.808;17.856;2024-01-25T13:40:21;100343.69;;;5.11
48854;BMP280;34673;52.808;17.856;2024-01-25T13:42:48;100349.59;;;5.07
48854;BMP280;34673;52.808;17.856;2024-01-25T13:45:16;100340.13;;;5.01
48854;BMP280;34673;52.808;17.856;2024-01-25T13:47:43;100353.88;;;5.06
48854;BMP280;34673;52.808;17.856;2024-01-25T13:50:11;100359.81;;;5.04
48854;BMP280;34673;52.808;17.856;2024-01-25T13:52:38;100361.50;;;5.02
48854;BMP280;34673;52.808;17.856;2024-01-25T13:55:06;100359.75;;;4.98
48854;BMP280;34673;52.808;17.856;2024-01-25T13:57:33;100370.00;;;4.98
48854;BMP280;34673;52.808;17.856;2024-01-25T14:00:01;100369.94;;;4.95
48854;BMP280;34673;52.808;17.856;2024-01-25T14:02:30;100384.47;;;4.94
48854;BMP280;34673;52.808;17.856;2024-01-25T14:04:57;100385.25;;;4.90
48854;BMP280;34673;52.808;17.856;2024-01-25T14:07:24;100387.75;;;4.85
48854;BMP280;34673;52.808;17.856;2024-01-25T14:09:53;100388.59;;;4.84
48854;BMP280;34673;52.808;17.856;2024-01-25T14:12:21;100400.50;;;4.82